Bowmansville, New York
Current Conditions -  °F | °C
As of 1:54 AM on Friday 19 Dec 2014 (Local Time) from KBUF Reporting Station
Overcast Overcast  
Wind Chill: 14°   Ceiling: 1500
Heat Index: 26°   Visibility: 10mi
Dew Point: 20°   Wind: 14mph
Humidity: 78%   Direction: 280°W
Pressure: 30.09"   Gusts: NA
Location:  42.94°N, 78.68°W
Report Text: KBUF 190654Z 28012KT 10SM OVC015 M03/M07 A3009 RMK AO2 SLP200 T10331067
Loading
Personal Weather Stations






























Interactive Weather Map New forecast layout! Learn more

10-Day Weather Forecast

Advertisements
Track Severe Weather on mobile